Time;durP1;ratioP1;P1;durP2;ratioP2;P2;SDS_P1;SDS_P2;PMS_P1;PMS_P2;Temp;Humidity;BMP_temperature;BMP_pressure;BME280_temperature;BME280_humidity;BME280_pressure;Samples;Min_cycle;Max_cycle;Signal;HPM_P1;HPM_P2
2021/03/05 00:01:25;;;;;;;7.95;1.73;;;;;;;-143.98;100.00;68091.63;6297703;22;20450;-83
2021/03/05 00:03:52;;;;;;;5.68;1.85;;;;;;;-143.98;100.00;68091.63;6282774;22;20034;-83
2021/03/05 00:06:18;;;;;;;3.55;1.60;;;;;;;-143.98;100.00;68091.63;6278789;22;20035;-83
2021/03/05 00:08:44;;;;;;;6.18;2.00;;;;;;;-143.98;100.00;68091.63;6253954;22;20034;-84
2021/03/05 00:11:10;;;;;;;11.85;1.35;;;;;;;-143.98;100.00;68091.63;6273222;22;20027;-83
2021/03/05 00:13:36;;;;;;;2.95;1.77;;;;;;;-143.98;100.00;68091.63;6287982;22;20035;-83
2021/03/05 00:16:03;;;;;;;8.15;2.25;;;;;;;-143.98;100.00;68091.63;6280026;22;20024;-83
2021/03/05 00:18:29;;;;;;;10.57;1.60;;;;;;;-143.98;100.00;68091.63;6280589;22;20412;-83
2021/03/05 00:21:02;;;;;;;7.47;1.75;;;;;;;-143.98;100.00;68091.63;6278723;22;20028;-83
2021/03/05 00:23:28;;;;;;;7.40;1.50;;;;;;;-143.98;100.00;68091.63;6254909;22;20043;-83
2021/03/05 00:25:56;;;;;;;2.20;1.38;;;;;;;-143.98;100.00;68091.63;6279128;22;20027;-83
2021/03/05 00:28:22;;;;;;;3.92;1.60;;;;;;;-143.98;100.00;68091.63;6280506;22;20031;-83
2021/03/05 00:30:54;;;;;;;8.15;3.10;;;;;;;-143.98;100.00;68091.63;6253690;22;20027;-83
2021/03/05 00:33:20;;;;;;;6.65;2.22;;;;;;;-143.98;100.00;68091.63;6252080;22;20026;-83
2021/03/05 00:35:54;;;;;;;7.25;1.48;;;;;;;-143.98;100.00;68091.63;6279137;22;20027;-83
2021/03/05 00:38:24;;;;;;;5.38;1.50;;;;;;;-143.98;100.00;68091.63;6279975;22;20028;-83
2021/03/05 00:40:51;;;;;;;3.88;1.63;;;;;;;-143.98;100.00;68091.63;6277977;22;20027;-83
2021/03/05 00:43:18;;;;;;;4.05;1.55;;;;;;;-143.98;100.00;68091.63;6278659;22;20035;-84
2021/03/05 00:45:48;;;;;;;5.93;1.65;;;;;;;-143.98;100.00;68091.63;6253081;22;20035;-84
2021/03/05 00:48:16;;;;;;;5.38;1.83;;;;;;;-143.98;100.00;68091.63;6278488;22;20028;-83
2021/03/05 00:50:43;;;;;;;4.80;1.80;;;;;;;-143.98;100.00;68091.63;6252825;22;20024;-84
2021/03/05 00:53:14;;;;;;;8.60;1.60;;;;;;;-143.98;100.00;68091.63;6279210;22;20030;-84
2021/03/05 00:55:40;;;;;;;5.75;1.45;;;;;;;-143.98;100.00;68091.63;6253257;22;20085;-84
2021/03/05 00:58:19;;;;;;;11.88;1.60;;;;;;;-143.98;100.00;68091.63;6282968;22;20202;-83
2021/03/05 01:00:51;;;;;;;7.70;1.52;;;;;;;-143.98;100.00;68091.63;6292461;22;20177;-84
2021/03/05 01:03:18;;;;;;;7.65;1.67;;;;;;;-143.98;100.00;68091.63;6285852;22;20573;-84
2021/03/05 01:05:47;;;;;;;3.83;1.55;;;;;;;-143.98;100.00;68091.63;6252835;22;20046;-84
2021/03/05 01:08:16;;;;;;;3.65;1.60;;;;;;;-143.98;100.00;68091.63;6254395;22;20304;-83
2021/03/05 01:10:43;;;;;;;6.93;1.95;;;;;;;-143.98;100.00;68091.63;6250790;22;20024;-84
2021/03/05 01:13:09;;;;;;;3.70;1.67;;;;;;;-143.98;100.00;68091.63;6251253;22;20024;-84
2021/03/05 01:15:36;;;;;;;4.60;1.50;;;;;;;-143.98;100.00;68091.63;6278705;22;20028;-84
2021/03/05 01:18:11;;;;;;;3.20;1.45;;;;;;;-143.98;100.00;68091.63;6278286;22;20070;-83
2021/03/05 01:20:39;;;;;;;5.30;1.60;;;;;;;-143.98;100.00;68091.63;6253555;22;20036;-84
2021/03/05 01:23:08;;;;;;;4.32;1.27;;;;;;;-143.98;100.00;68091.63;6278526;22;20027;-84
2021/03/05 01:25:37;;;;;;;6.05;1.75;;;;;;;-143.98;100.00;68091.63;6291411;22;20023;-84
2021/03/05 01:28:04;;;;;;;4.50;1.40;;;;;;;-143.98;100.00;68091.63;6257852;22;20102;-84
2021/03/05 01:30:31;;;;;;;4.95;1.50;;;;;;;-143.98;100.00;68091.63;6258722;22;20321;-83
2021/03/05 01:33:00;;;;;;;5.78;1.52;;;;;;;-143.98;100.00;68091.63;6257068;22;20031;-84
2021/03/05 01:35:28;;;;;;;4.75;1.67;;;;;;;-143.98;100.00;68091.63;6258806;22;20038;-83
2021/03/05 01:37:58;;;;;;;10.50;1.30;;;;;;;-143.98;100.00;68091.63;6284078;22;20088;-83
2021/03/05 01:40:45;;;;;;;6.00;1.75;;;;;;;-143.98;100.00;68091.63;6283331;22;20031;-84
2021/03/05 01:43:16;;;;;;;5.10;1.90;;;;;;;-143.98;100.00;68091.63;6282845;22;20019;-83
2021/03/05 01:45:43;;;;;;;5.82;1.75;;;;;;;-143.98;100.00;68091.63;6257421;22;20027;-84
2021/03/05 01:48:16;;;;;;;10.85;2.35;;;;;;;-143.98;100.00;68091.63;6282744;22;20058;-83
2021/03/05 01:51:12;;;;;;;7.80;1.60;;;;;;;-143.98;100.00;68091.63;6254453;22;20027;-83
2021/03/05 01:53:47;;;;;;;6.13;1.40;;;;;;;-143.98;100.00;68091.63;6281698;22;20134;-83
2021/03/05 01:56:30;;;;;;;5.28;1.20;;;;;;;-143.98;100.00;68091.63;6277955;22;20027;-84
2021/03/05 01:59:13;;;;;;;4.30;1.30;;;;;;;-143.98;100.00;68091.63;6277412;22;20046;-83
2021/03/05 02:01:47;;;;;;;4.57;1.42;;;;;;;-143.98;100.00;68091.63;6271220;22;20027;-84
2021/03/05 02:04:21;;;;;;;3.90;1.20;;;;;;;-143.98;100.00;68091.63;6288782;22;20029;-84
2021/03/05 02:07:35;;;;;;;4.97;1.42;;;;;;;-143.98;100.00;68091.63;6312069;22;20043;-84
2021/03/05 02:10:23;;;;;;;12.35;1.75;;;;;;;-143.98;100.00;68091.63;6265082;22;20027;-84
2021/03/05 02:12:58;;;;;;;5.00;1.60;;;;;;;-143.98;100.00;68091.63;6283529;22;20023;-83
2021/03/05 02:16:01;;;;;;;4.90;1.45;;;;;;;-143.98;100.00;68091.63;6308521;22;20037;-84
2021/03/05 02:19:04;;;;;;;10.27;1.70;;;;;;;-143.98;100.00;68091.63;6272378;22;20030;-84
2021/03/05 02:22:05;;;;;;;10.25;2.30;;;;;;;-143.98;100.00;68091.63;6261682;22;20350;-84
2021/03/05 02:25:27;;;;;;;3.50;1.50;;;;;;;-143.98;100.00;68091.63;6283738;22;20049;-84
2021/03/05 02:28:45;;;;;;;9.95;1.88;;;;;;;-143.98;100.00;68091.63;6263478;22;20112;-84
2021/03/05 02:32:03;;;;;;;5.38;1.45;;;;;;;-143.98;100.00;68091.63;6279898;22;20034;-83
2021/03/05 02:35:16;;;;;;;7.65;1.80;;;;;;;-143.98;100.00;68091.63;6262999;22;20031;-84
2021/03/05 02:38:19;;;;;;;4.85;1.60;;;;;;;-143.98;100.00;68091.63;6283190;22;20023;-84
2021/03/05 02:40:58;;;;;;;8.50;1.77;;;;;;;-143.98;100.00;68091.63;6283426;22;20028;-84
2021/03/05 02:43:34;;;;;;;12.57;1.80;;;;;;;-143.98;100.00;68091.63;6282932;22;20019;-84
2021/03/05 02:46:17;;;;;;;6.35;1.52;;;;;;;-143.98;100.00;68091.63;6286845;22;20312;-83
2021/03/05 02:48:59;;;;;;;4.85;1.75;;;;;;;-143.98;100.00;68091.63;6263931;22;20034;-83
2021/03/05 02:52:25;;;;;;;6.68;1.35;;;;;;;-143.98;100.00;68091.63;6290957;22;20033;-84
2021/03/05 02:55:19;;;;;;;6.05;2.10;;;;;;;-143.98;100.00;68091.63;6265005;22;20080;-84
2021/03/05 02:58:25;;;;;;;7.90;1.77;;;;;;;-143.98;100.00;68091.63;6310403;22;20089;-84
2021/03/05 03:01:03;;;;;;;7.78;1.55;;;;;;;-143.98;100.00;68091.63;6262284;22;20046;-84
2021/03/05 03:07:25;;;;;;;6.13;1.60;;;;;;;-143.98;100.00;68091.63;6305736;22;20413;-84
2021/03/05 03:10:06;;;;;;;5.82;1.67;;;;;;;-143.98;100.00;68091.63;6283806;22;20382;-84
2021/03/05 03:12:58;;;;;;;4.25;1.40;;;;;;;-143.98;100.00;68091.63;6259050;22;20023;-84
2021/03/05 03:19:50;;;;;;;3.88;1.60;;;;;;;-143.98;100.00;68091.63;6293861;22;20305;-84
2021/03/05 03:22:58;;;;;;;6.10;1.80;;;;;;;-143.98;100.00;68091.63;6286782;22;20023;-84
2021/03/05 03:26:11;;;;;;;9.30;1.40;;;;;;;-143.98;100.00;68091.63;6308421;22;20120;-84
2021/03/05 03:28:57;;;;;;;3.03;1.50;;;;;;;-143.98;100.00;68091.63;6285064;22;20074;-84
2021/03/05 03:32:06;;;;;;;6.00;1.58;;;;;;;-143.98;100.00;68091.63;6272483;22;20088;-84
2021/03/05 03:34:58;;;;;;;5.25;1.60;;;;;;;-143.98;100.00;68091.63;6309458;22;20055;-83
2021/03/05 03:38:10;;;;;;;7.40;1.90;;;;;;;-143.98;100.00;68091.63;6298575;22;20015;-84
2021/03/05 03:40:50;;;;;;;6.47;1.80;;;;;;;-143.98;100.00;68091.63;6304669;22;20029;-84
2021/03/05 03:43:49;;;;;;;8.25;1.60;;;;;;;-143.98;100.00;68091.63;6287629;22;20027;-84
2021/03/05 03:46:55;;;;;;;3.35;1.50;;;;;;;-143.98;100.00;68091.63;6312415;22;20097;-84
2021/03/05 03:49:58;;;;;;;11.13;2.30;;;;;;;-143.98;100.00;68091.63;6265834;22;20023;-83
2021/03/05 03:52:59;;;;;;;10.05;1.50;;;;;;;-143.98;100.00;68091.63;6309895;22;20023;-84
2021/03/05 03:56:18;;;;;;;5.82;2.13;;;;;;;-143.98;100.00;68091.63;6289719;22;20089;-84
2021/03/05 03:59:11;;;;;;;5.97;1.77;;;;;;;-143.98;100.00;68091.63;6295802;22;20041;-83
2021/03/05 04:02:09;;;;;;;5.80;1.42;;;;;;;-143.98;100.00;68091.63;6223579;23;20028;-84
2021/03/05 04:05:39;;;;;;;;;;;;;;;;;;;;;
2021/03/05 04:08:42;;;;;;;10.60;1.70;;;;;;;-143.98;100.00;68091.63;6246127;23;20047;-84
2021/03/05 04:11:29;;;;;;;2.80;1.58;;;;;;;-143.98;100.00;68091.63;6195235;23;20043;-83
2021/03/05 04:14:30;;;;;;;5.97;1.70;;;;;;;-143.98;100.00;68091.63;6221962;23;20024;-84
2021/03/05 04:17:24;;;;;;;10.20;2.15;;;;;;;-143.98;100.00;68091.63;6242802;23;20028;-83
2021/03/05 04:20:08;;;;;;;7.60;1.90;;;;;;;-143.98;100.00;68091.63;6247437;22;20087;-83
2021/03/05 04:23:01;;;;;;;8.25;2.00;;;;;;;-143.98;100.00;68091.63;6255153;23;20090;-83
2021/03/05 04:25:53;;;;;;;8.60;2.13;;;;;;;-143.98;100.00;68091.63;6235870;22;20021;-83
2021/03/05 04:28:38;;;;;;;4.35;1.60;;;;;;;-143.98;100.00;68091.63;6240995;23;20081;-84
2021/03/05 04:31:31;;;;;;;9.38;1.90;;;;;;;-143.98;100.00;68091.63;6239719;23;20031;-84
2021/03/05 04:34:23;;;;;;;9.77;2.40;;;;;;;-143.98;100.00;68091.63;6271465;22;20031;-84
2021/03/05 04:37:04;;;;;;;8.85;2.17;;;;;;;-143.98;100.00;68091.63;6248899;23;20024;-83
2021/03/05 04:39:55;;;;;;;11.38;3.45;;;;;;;-143.98;100.00;68091.63;6221958;23;20031;-84
2021/03/05 04:42:31;;;;;;;9.73;2.08;;;;;;;-143.98;100.00;68091.63;6222882;23;20024;-84
2021/03/05 04:46:06;;;;;;;4.82;2.35;;;;;;;-143.98;100.00;68091.63;6246240;23;20024;-84
2021/03/05 04:48:51;;;;;;;8.35;2.20;;;;;;;-143.98;100.00;68091.63;6252209;22;20416;-84
2021/03/05 04:54:43;;;;;;;7.50;2.85;;;;;;;-143.98;100.00;68091.63;6242314;22;20301;-84
2021/03/05 04:58:10;;;;;;;7.00;2.00;;;;;;;-143.98;100.00;68091.63;6261227;22;20172;-84
2021/03/05 05:01:00;;;;;;;5.90;1.90;;;;;;;-143.98;100.00;68091.63;6245305;23;20043;-84
2021/03/05 05:04:09;;;;;;;6.25;1.85;;;;;;;-143.98;100.00;68091.63;6244621;23;20327;-84
2021/03/05 05:07:20;;;;;;;;;;;;;;;;;;;;;
2021/03/05 05:10:31;;;;;;;4.28;2.03;;;;;;;-143.98;100.00;68091.63;6242521;23;20035;-84
2021/03/05 05:16:31;;;;;;;7.63;2.50;;;;;;;-143.98;100.00;68091.63;6239530;23;20541;-84
2021/03/05 05:29:43;;;;;;;6.53;2.47;;;;;;;-143.98;100.00;68091.63;6243357;22;20298;-84
2021/03/05 05:36:27;;;;;;;;;;;;;;;;;;;;;
2021/03/05 05:39:44;;;;;;;13.55;2.10;;;;;;;-143.98;100.00;68091.63;6283878;22;20112;-83
2021/03/05 05:42:56;;;;;;;7.75;2.30;;;;;;;-143.98;100.00;68091.63;6307533;22;20305;-83
2021/03/05 05:45:54;;;;;;;9.63;2.83;;;;;;;-143.98;100.00;68091.63;6264652;22;20023;-83
2021/03/05 05:48:48;;;;;;;8.38;2.28;;;;;;;-143.98;100.00;68091.63;6265264;22;20068;-84
2021/03/05 05:51:41;;;;;;;6.05;2.90;;;;;;;-143.98;100.00;68091.63;6261627;22;20031;-84
2021/03/05 05:54:44;;;;;;;5.32;2.17;;;;;;;-143.98;100.00;68091.63;6257991;22;20101;-84
2021/03/05 05:57:31;;;;;;;7.68;2.42;;;;;;;-143.98;100.00;68091.63;6284584;22;20092;-84
2021/03/05 06:03:26;;;;;;;6.13;2.20;;;;;;;-143.98;100.00;68091.63;6258895;22;20058;-84
2021/03/05 06:13:13;;;;;;;7.38;2.60;;;;;;;-143.98;100.00;68091.63;6226829;23;20027;-83
2021/03/05 06:16:44;;;;;;;6.85;2.10;;;;;;;-143.98;100.00;68091.63;6239602;22;20049;-82
2021/03/05 06:19:55;;;;;;;11.27;2.45;;;;;;;-143.98;100.00;68091.63;6275699;22;20074;-82
2021/03/05 06:23:02;;;;;;;7.90;1.92;;;;;;;-143.98;100.00;68091.63;6277315;22;20023;-83
2021/03/05 06:26:27;;;;;;;16.50;2.28;;;;;;;-143.98;100.00;68091.63;6303006;22;20031;-84
2021/03/05 06:29:46;;;;;;;;;;;;;;;;;;;;;
2021/03/05 06:33:32;;;;;;;5.68;2.72;;;;;;;-143.98;100.00;68091.63;6159595;23;20029;-83
2021/03/05 06:39:58;;;;;;;4.97;1.75;;;;;;;-143.98;100.00;68091.63;6179672;23;20066;-83
2021/03/05 06:47:07;;;;;;;8.30;1.77;;;;;;;-143.98;100.00;68091.63;6065169;23;20037;-83
2021/03/05 07:13:00;;;;;;;8.70;1.77;;;;;;;-143.98;100.00;68091.63;5978222;24;20080;-83
2021/03/05 07:16:54;;;;;;;;;;;;;;;;;;;;;
2021/03/05 07:35:01;;;;;;;9.95;1.55;;;;;;;-143.98;100.00;68091.63;6020003;23;20038;-84
2021/03/05 07:37:39;;;;;;;7.88;1.67;;;;;;;-143.98;100.00;68091.63;5959882;23;20028;-82
2021/03/05 07:40:16;;;;;;;7.90;1.70;;;;;;;-143.98;100.00;68091.63;5956494;23;20027;-83
2021/03/05 07:42:52;;;;;;;9.07;2.05;;;;;;;-143.98;100.00;68091.63;6119226;23;20151;-83
2021/03/05 07:52:47;;;;;;;6.45;1.70;;;;;;;-143.98;100.00;68091.63;6093219;23;20110;-82
2021/03/05 07:55:56;;;;;;;3.60;1.70;;;;;;;-143.98;100.00;68091.63;6116299;23;20296;-84
2021/03/05 07:59:19;;;;;;;5.72;1.27;;;;;;;-143.98;100.00;68091.63;6117133;23;20029;-83
2021/03/05 08:02:27;;;;;;;;;;;;;;;-143.98;100.00;68091.63;6238555;23;20028;-83
2021/03/05 08:05:17;;;;;;;;;;;;;;;;;;;;;
2021/03/05 08:08:19;;;;;;;4.93;1.40;;;;;;;-143.98;100.00;68091.63;6221170;23;20055;-84
2021/03/05 08:11:06;;;;;;;4.38;1.40;;;;;;;-143.98;100.00;68091.63;6213971;23;20147;-84
2021/03/05 08:13:47;;;;;;;5.18;1.25;;;;;;;-143.98;100.00;68091.63;6212187;23;20145;-83
2021/03/05 08:16:37;;;;;;;3.53;1.20;;;;;;;-143.98;100.00;68091.63;6218375;23;20086;-84
2021/03/05 08:19:06;;;;;;;;;;;;;;;-143.98;100.00;68091.63;6213167;23;20047;-84
2021/03/05 08:21:55;;;;;;;5.82;1.67;;;;;;;-143.98;100.00;68091.63;6208834;23;19915;-84
2021/03/05 08:24:26;;;;;;;4.57;1.20;;;;;;;-143.98;100.00;68091.63;6207235;23;20024;-84
2021/03/05 08:27:13;;;;;;;2.92;1.20;;;;;;;-143.98;100.00;68091.63;6212323;23;20249;-84
2021/03/05 08:29:48;;;;;;;4.95;1.40;;;;;;;-143.98;100.00;68091.63;6236698;23;20024;-83
2021/03/05 08:32:33;;;;;;;7.78;1.38;;;;;;;-143.98;100.00;68091.63;6202462;22;20028;-84
2021/03/05 08:35:08;;;;;;;5.65;1.33;;;;;;;-143.98;100.00;68091.63;6275430;22;20027;-83
2021/03/05 08:37:45;;;;;;;6.35;1.33;;;;;;;-143.98;100.00;68091.63;6250586;22;20336;-85
2021/03/05 08:40:25;;;;;;;4.25;1.15;;;;;;;-143.98;100.00;68091.63;6251454;22;20405;-84
2021/03/05 08:42:57;;;;;;;5.35;1.30;;;;;;;-143.98;100.00;68091.63;6272512;22;20078;-84
2021/03/05 08:45:29;;;;;;;3.13;0.90;;;;;;;-143.98;100.00;68091.63;6297922;22;20030;-85
2021/03/05 08:48:03;;;;;;;3.60;1.10;;;;;;;-143.98;100.00;68091.63;6250669;22;20140;-84
2021/03/05 08:50:37;;;;;;;6.10;1.02;;;;;;;-143.98;100.00;68091.63;6296945;22;20033;-84
2021/03/05 08:53:13;;;;;;;7.13;1.40;;;;;;;-143.98;100.00;68091.63;6253623;22;20438;-84
2021/03/05 08:55:45;;;;;;;5.50;1.33;;;;;;;-143.98;100.00;68091.63;6276455;22;20035;-84
2021/03/05 08:58:19;;;;;;;3.42;0.95;;;;;;;-143.98;100.00;68091.63;6280128;22;20404;-85
2021/03/05 09:01:05;;;;;;;5.05;1.20;;;;;;;-143.98;100.00;68091.63;6257211;22;20102;-84
2021/03/05 09:04:08;;;;;;;;;;;;;;;;;;;;;
2021/03/05 09:07:20;;;;;;;6.40;1.30;;;;;;;-143.98;100.00;68091.63;6287739;22;20046;-85
2021/03/05 09:10:00;;;;;;;3.15;1.15;;;;;;;-143.98;100.00;68091.63;6307268;22;20196;-85
2021/03/05 09:12:38;;;;;;;3.53;1.00;;;;;;;-143.98;100.00;68091.63;6257108;22;20023;-86
2021/03/05 09:15:13;;;;;;;7.07;1.38;;;;;;;-143.98;100.00;68091.63;6258914;22;20351;-85
2021/03/05 09:17:46;;;;;;;5.55;1.20;;;;;;;-143.98;100.00;68091.63;6260252;22;20062;-85
2021/03/05 09:20:39;;;;;;;4.63;0.98;;;;;;;-143.98;100.00;68091.63;6289791;22;20133;-84
2021/03/05 09:23:36;;;;;;;6.03;0.93;;;;;;;-143.98;100.00;68091.63;6262876;22;20038;-85
2021/03/05 09:26:15;;;;;;;2.67;1.05;;;;;;;-143.98;100.00;68091.63;6264605;22;20043;-85
2021/03/05 09:29:02;;;;;;;3.00;0.57;;;;;;;-143.98;100.00;68091.63;6287907;22;20027;-84
2021/03/05 09:31:38;;;;;;;3.67;0.95;;;;;;;-143.98;100.00;68091.63;6262170;22;20032;-84
2021/03/05 09:34:07;;;;;;;3.65;0.80;;;;;;;-143.98;100.00;68091.63;6262263;22;20023;-85
2021/03/05 09:36:36;;;;;;;3.70;0.63;;;;;;;-143.98;100.00;68091.63;6265825;22;20285;-85
2021/03/05 09:39:18;;;;;;;4.70;1.00;;;;;;;-143.98;100.00;68091.63;6257752;22;20023;-84
2021/03/05 09:41:54;;;;;;;1.98;0.70;;;;;;;-143.98;100.00;68091.63;6284860;22;20023;-85
2021/03/05 09:44:55;;;;;;;2.28;0.80;;;;;;;-143.98;100.00;68091.63;6264626;22;20026;-84
2021/03/05 09:47:30;;;;;;;1.60;0.70;;;;;;;-143.98;100.00;68091.63;6264075;22;20027;-83
2021/03/05 09:50:19;;;;;;;3.35;0.75;;;;;;;-143.98;100.00;68091.63;6262551;22;20028;-84
2021/03/05 09:52:49;;;;;;;3.70;0.70;;;;;;;-143.98;100.00;68091.63;6286341;22;20054;-85
2021/03/05 09:55:31;;;;;;;7.60;0.68;;;;;;;-143.98;100.00;68091.63;6256124;22;20127;-84
2021/03/05 09:58:33;;;;;;;;;;;;;;;;;;;;;
2021/03/05 10:01:28;;;;;;;1.02;0.50;;;;;;;-143.98;100.00;68091.63;6288187;22;20034;-84
2021/03/05 10:04:05;;;;;;;2.67;0.73;;;;;;;-143.98;100.00;68091.63;6274883;22;20055;-84
2021/03/05 10:06:45;;;;;;;4.18;0.93;;;;;;;-143.98;100.00;68091.63;6296328;22;20013;-84
2021/03/05 10:09:39;;;;;;;2.00;0.85;;;;;;;-143.98;100.00;68091.63;6276448;22;20008;-86
2021/03/05 10:12:21;;;;;;;3.92;0.73;;;;;;;-143.98;100.00;68091.63;6317702;22;20074;-85
2021/03/05 10:15:11;;;;;;;4.32;0.65;;;;;;;-143.98;100.00;68091.63;6313418;22;20540;-85
2021/03/05 10:18:19;;;;;;;4.50;1.00;;;;;;;-143.98;100.00;68091.63;6285031;22;20030;-84
2021/03/05 10:21:14;;;;;;;5.75;1.15;;;;;;;-143.98;100.00;68091.63;6283405;22;20227;-84
2021/03/05 10:23:56;;;;;;;3.47;0.65;;;;;;;-143.98;100.00;68091.63;6282280;22;20079;-84
2021/03/05 10:26:31;;;;;;;3.20;1.02;;;;;;;-143.98;100.00;68091.63;6246038;22;20460;-84
2021/03/05 10:29:11;;;;;;;4.03;0.75;;;;;;;-143.98;100.00;68091.63;6258110;22;20281;-84
2021/03/05 10:32:00;;;;;;;2.03;0.50;;;;;;;-143.98;100.00;68091.63;6234029;23;20027;-82
2021/03/05 12:02:31;;;;;;;2.78;0.73;;;;;;;26.10;12.98;102892.69;5015677;28;20644;-86
2021/03/05 12:05:04;;;;;;;4.53;1.10;;;;;;;29.18;11.32;102891.16;5007436;28;20068;-84
2021/03/05 12:07:30;;;;;;;2.55;0.90;;;;;;;29.36;10.89;102893.38;5005606;28;20068;-86
2021/03/05 12:10:18;;;;;;;2.42;1.20;;;;;;;30.70;10.28;102887.25;5020076;28;20050;-84
2021/03/05 12:12:51;;;;;;;1.98;0.77;;;;;;;29.56;10.39;102898.03;5023452;28;20050;-85
2021/03/05 12:15:20;;;;;;;5.30;0.80;;;;;;;30.23;9.13;102897.25;4992561;28;20456;-85
2021/03/05 12:17:49;;;;;;;2.95;1.02;;;;;;;26.93;11.15;102903.31;4987256;28;20038;-84
2021/03/05 12:20:16;;;;;;;3.00;0.65;;;;;;;27.57;11.70;102896.41;5002547;28;20262;-85
2021/03/05 12:22:45;;;;;;;1.98;0.80;;;;;;;25.83;12.07;102886.47;4996121;28;20053;-84
2021/03/05 12:25:15;;;;;;;1.83;0.63;;;;;;;25.89;12.35;102886.09;4992378;28;20081;-87
2021/03/05 12:27:41;;;;;;;1.85;0.75;;;;;;;23.67;14.08;102887.06;4991384;28;20126;-85
2021/03/05 12:30:17;;;;;;;3.58;0.90;;;;;;;24.23;13.52;102888.50;5010986;28;20202;-85
2021/03/05 12:32:47;;;;;;;6.95;1.02;;;;;;;21.20;16.66;102886.91;4994742;28;20119;-84
2021/03/05 12:35:14;;;;;;;6.07;0.90;;;;;;;22.40;15.91;102887.91;4992955;28;20205;-84
2021/03/05 12:37:42;;;;;;;2.83;0.93;;;;;;;20.43;18.34;102884.59;5008709;28;20072;-84
2021/03/05 12:40:09;;;;;;;9.38;1.13;;;;;;;18.49;20.46;102891.81;5008201;28;20151;-83
2021/03/05 12:42:36;;;;;;;1.83;0.80;;;;;;;17.57;22.02;102892.53;5009065;28;20058;-84
2021/03/05 12:45:10;;;;;;;3.72;1.38;;;;;;;20.55;17.52;102889.44;5025003;28;20046;-83
2021/03/05 12:47:37;;;;;;;6.97;1.30;;;;;;;22.09;17.09;102889.25;4994158;28;20053;-85
2021/03/05 12:50:06;;;;;;;1.55;0.82;;;;;;;23.08;15.51;102895.22;4989579;28;20076;-84
2021/03/05 12:52:32;;;;;;;3.75;0.70;;;;;;;20.02;17.58;102891.34;5021859;28;20121;-85
2021/03/05 12:55:02;;;;;;;2.97;1.20;;;;;;;19.79;18.81;102887.75;5003953;28;20095;-85
2021/03/05 12:57:28;;;;;;;2.05;0.98;;;;;;;19.20;18.74;102892.34;5004862;28;20061;-84
2021/03/05 12:59:55;;;;;;;3.05;0.98;;;;;;;19.97;19.37;102886.28;5005618;28;20058;-84
2021/03/05 13:02:22;;;;;;;3.03;1.00;;;;;;;19.50;19.48;102883.50;4990181;28;20106;-84
2021/03/05 13:04:52;;;;;;;3.75;0.90;;;;;;;17.59;21.57;102894.22;5039205;28;20580;-84
2021/03/05 13:07:28;;;;;;;2.50;1.20;;;;;;;16.95;22.06;102880.13;5007571;28;20088;-85
2021/03/05 13:09:54;;;;;;;3.20;1.25;;;;;;;16.29;23.52;102896.22;5002067;28;20050;-84
2021/03/05 13:12:21;;;;;;;2.60;0.85;;;;;;;15.74;22.40;102892.88;4989456;28;20054;-85
2021/03/05 13:14:47;;;;;;;3.72;1.35;;;;;;;15.17;23.48;102903.25;5003803;28;20076;-84
2021/03/05 13:17:19;;;;;;;3.33;1.20;;;;;;;14.66;23.98;102896.19;5014588;28;20341;-84
2021/03/05 13:19:47;;;;;;;1.92;0.98;;;;;;;14.82;24.44;102899.41;4989264;28;20051;-83
2021/03/05 13:22:20;;;;;;;7.60;1.83;;;;;;;14.88;23.59;102889.00;5007095;28;20282;-84
2021/03/05 13:24:52;;;;;;;4.25;1.02;;;;;;;15.28;24.38;102898.78;4998713;28;20053;-84
2021/03/05 13:27:24;;;;;;;4.45;1.10;;;;;;;15.73;23.92;102895.50;5003672;28;20084;-85
2021/03/05 13:29:54;;;;;;;6.35;1.30;;;;;;;15.73;24.65;102898.97;5006898;28;20070;-84
2021/03/05 13:32:22;;;;;;;1.83;0.90;;;;;;;15.84;23.96;102890.97;5021426;28;20145;-84
2021/03/05 13:34:58;;;;;;;3.05;1.02;;;;;;;16.15;23.49;102891.28;5005239;28;20065;-85
2021/03/05 13:37:33;;;;;;;5.95;1.00;;;;;;;16.56;23.70;102902.63;4983504;28;20081;-84
2021/03/05 13:39:59;;;;;;;3.53;0.95;;;;;;;16.83;22.50;102889.03;4984964;28;20899;-84
2021/03/05 13:42:26;;;;;;;3.08;1.20;;;;;;;16.65;21.87;102892.03;5072338;28;20428;-84
2021/03/05 13:44:53;;;;;;;1.90;0.90;;;;;;;16.48;22.58;102895.81;4974489;28;20058;-84
2021/03/05 13:47:21;;;;;;;3.78;0.80;;;;;;;16.21;22.16;102894.63;4979282;28;20175;-84
2021/03/05 13:49:56;;;;;;;3.42;1.20;;;;;;;15.92;22.93;102894.31;5006653;28;20046;-84
2021/03/05 13:52:23;;;;;;;4.07;0.90;;;;;;;15.74;24.46;102900.66;4974045;28;20046;-85
2021/03/05 13:54:54;;;;;;;2.05;0.80;;;;;;;15.34;24.06;102903.88;4973600;28;20042;-84
2021/03/05 13:57:27;;;;;;;1.67;0.80;;;;;;;15.20;24.74;102901.50;5022602;28;20126;-84
2021/03/05 13:59:53;;;;;;;1.38;0.60;;;;;;;14.91;23.86;102903.63;4983183;28;20070;-84
2021/03/05 14:02:23;;;;;;;2.20;0.82;;;;;;;14.65;23.86;102898.78;5021413;28;20065;-84
2021/03/05 14:04:49;;;;;;;2.53;0.80;;;;;;;14.26;24.46;102898.34;5009161;28;20085;-82
2021/03/05 14:07:18;;;;;;;4.03;0.60;;;;;;;14.14;24.80;102894.13;4997482;28;20050;-83
2021/03/05 14:09:44;;;;;;;2.05;0.93;;;;;;;14.02;24.15;102901.19;4974641;28;20185;-84
2021/03/05 14:12:17;;;;;;;6.55;0.90;;;;;;;14.02;23.87;102901.19;5006278;28;20046;-83
2021/03/05 14:14:43;;;;;;;1.38;0.68;;;;;;;13.99;24.02;102898.63;4975303;28;20083;-84
2021/03/05 14:17:09;;;;;;;3.40;0.65;;;;;;;13.86;25.63;102896.16;4994949;28;20058;-83
2021/03/05 14:19:36;;;;;;;7.05;0.70;;;;;;;13.81;25.69;102903.13;4998112;28;20059;-84
2021/03/05 14:22:08;;;;;;;2.53;0.73;;;;;;;13.51;23.94;102895.56;5032320;28;20050;-83
2021/03/05 14:24:37;;;;;;;1.95;0.73;;;;;;;13.44;24.46;102904.28;5030976;28;20624;-82
2021/03/05 14:27:06;;;;;;;4.82;0.70;;;;;;;13.32;23.69;102900.91;4969433;28;20058;-84
2021/03/05 14:29:36;;;;;;;2.78;0.68;;;;;;;13.12;23.47;102907.88;4990186;28;20212;-83
2021/03/05 14:32:03;;;;;;;1.70;0.70;;;;;;;12.70;23.55;102908.97;5004588;28;20121;-84
2021/03/05 14:34:29;;;;;;;1.40;1.05;;;;;;;12.58;24.71;102912.44;5004030;28;20054;-83
2021/03/05 14:36:55;;;;;;;1.67;0.85;;;;;;;12.66;25.68;102905.53;4994474;28;20046;-83
2021/03/05 14:39:26;;;;;;;2.25;0.75;;;;;;;12.58;24.21;102912.44;5002039;28;20054;-83
2021/03/05 14:41:55;;;;;;;2.22;0.88;;;;;;;12.50;25.80;102912.47;5006428;28;20030;-83
2021/03/05 14:44:27;;;;;;;1.95;1.00;;;;;;;12.51;25.06;102908.16;5012399;28;20050;-83
2021/03/05 14:47:00;;;;;;;8.18;0.88;;;;;;;12.30;25.98;102909.09;4992347;28;20068;-84
2021/03/05 14:49:29;;;;;;;2.65;0.90;;;;;;;12.25;26.61;102916.84;4989639;28;20089;-82
2021/03/05 14:51:57;;;;;;;3.42;0.98;;;;;;;12.27;27.87;102924.59;4973210;28;20428;-83
2021/03/05 14:54:25;;;;;;;1.23;0.63;;;;;;;12.45;27.89;102909.06;4995262;28;20061;-84
2021/03/05 14:56:52;;;;;;;2.47;0.85;;;;;;;12.43;27.67;102917.66;4990618;28;20046;-84
2021/03/05 14:59:18;;;;;;;0.73;0.70;;;;;;;12.56;27.72;102916.75;5033721;28;20066;-84
2021/03/05 15:01:45;;;;;;;3.38;0.90;;;;;;;12.36;27.25;102909.06;5077609;28;20209;-84
2021/03/05 15:04:12;;;;;;;4.72;1.05;;;;;;;12.43;27.63;102915.94;4977030;28;20108;-85
2021/03/05 15:06:41;;;;;;;2.17;0.82;;;;;;;12.65;28.46;102914.16;4971430;28;20226;-83
2021/03/05 15:09:08;;;;;;;3.20;0.73;;;;;;;12.45;28.10;102918.53;5016343;28;20142;-83
2021/03/05 15:11:37;;;;;;;1.58;0.82;;;;;;;12.17;28.61;102921.16;5010652;28;20065;-83
2021/03/05 15:14:09;;;;;;;2.63;0.70;;;;;;;11.74;29.06;102923.72;5008690;28;20109;-83
2021/03/05 15:16:35;;;;;;;1.65;0.50;;;;;;;11.24;30.27;102934.84;5007982;28;20156;-84
2021/03/05 15:19:03;;;;;;;1.95;0.50;;;;;;;11.01;28.76;102936.50;4966751;28;20162;-84
2021/03/05 15:21:50;;;;;;;4.10;0.90;;;;;;;10.87;28.90;102925.25;4991930;28;20054;-84
2021/03/05 15:24:29;;;;;;;2.05;0.65;;;;;;;-143.98;29.73;102929.44;5000164;28;20085;-84
2021/03/05 15:26:56;;;;;;;3.85;0.95;;;;;;;10.63;29.73;102929.44;4988099;28;20055;-84
2021/03/05 15:29:24;;;;;;;2.30;0.98;;;;;;;10.42;29.56;102925.06;4971187;28;20177;-82
2021/03/05 15:31:50;;;;;;;2.38;0.93;;;;;;;10.12;29.63;102935.97;4984073;28;20042;-83